PRIVATE WETTERSTATION BILLIGHEIM-ALLFELD                       ZURCK
Wetterdaten: Donnerstag, 04.05.2017
Datum Zeit Temp. A. Temp. A. min Temp. A. max Feuchte A. Luftdruck Regen Wind Richtung Richtung Sonnenschein ET Solar Taupunkt Windchill Windben Empfang
04.05.2017 00:00 7,3 C 7,3 C 7,3 C 91 % 1016,2 hPa 0,0 l/m 0,0 km/h (0 Bft) N 0 0 min 0,000 mm 0 W/m 5,9 C 7,3 C 0,0 km/h (0 Bft) 100 %
04.05.2017 00:10 7,2 C 7,2 C 7,3 C 91 % 1016,3 hPa 0,0 l/m 0,0 km/h (0 Bft) N 0 0 min 0,000 mm 0 W/m 5,8 C 7,2 C 0,0 km/h (0 Bft) 100 %
04.05.2017 00:20 7,1 C 7,1 C 7,2 C 91 % 1016,2 hPa 0,0 l/m 0,0 km/h (0 Bft) N 0 0 min 0,000 mm 0 W/m 5,7 C 7,1 C 0,0 km/h (0 Bft) 100 %
04.05.2017 00:30 6,8 C 6,8 C 7,1 C 91 % 1016,2 hPa 0,0 l/m 0,0 km/h (0 Bft) N 0 0 min 0,000 mm 0 W/m 5,4 C 6,8 C 0,0 km/h (0 Bft) 100 %
04.05.2017 00:40 6,6 C 6,6 C 6,8 C 91 % 1016,2 hPa 0,0 l/m 0,0 km/h (0 Bft) N 0 0 min 0,000 mm 0 W/m 5,2 C 6,6 C 0,0 km/h (0 Bft) 100 %
04.05.2017 00:50 6,4 C 6,4 C 6,6 C 91 % 1016,1 hPa 0,0 l/m 0,0 km/h (0 Bft) N 0 0 min 0,000 mm 0 W/m 5,0 C 6,4 C 0,0 km/h (0 Bft) 100 %
04.05.2017 01:00 6,3 C 6,3 C 6,4 C 91 % 1016,1 hPa 0,0 l/m 0,0 km/h (0 Bft) N 0 0 min 0,000 mm 0 W/m 4,9 C 6,3 C 0,0 km/h (0 Bft) 100 %
04.05.2017 01:10 6,1 C 6,1 C 6,3 C 91 % 1016,1 hPa 0,0 l/m 0,0 km/h (0 Bft) N 360 0 min 0,000 mm 0 W/m 4,7 C 6,1 C 1,6 km/h (1 Bft) 100 %
04.05.2017 01:20 5,8 C 5,8 C 6,1 C 91 % 1016,1 hPa 0,0 l/m 0,0 km/h (0 Bft) N 0 0 min 0,000 mm 0 W/m 4,4 C 5,8 C 0,0 km/h (0 Bft) 100 %
04.05.2017 01:30 5,7 C 5,7 C 5,9 C 91 % 1016,1 hPa 0,0 l/m 0,0 km/h (0 Bft) N 0 0 min 0,000 mm 0 W/m 4,3 C 5,7 C 0,0 km/h (0 Bft) 91 %
04.05.2017 01:40 5,4 C 5,4 C 5,7 C 91 % 1016,0 hPa 0,0 l/m 0,0 km/h (0 Bft) N 0 0 min 0,000 mm 0 W/m 4,1 C 5,4 C 0,0 km/h (0 Bft) 100 %
04.05.2017 01:50 5,4 C 5,4 C 5,4 C 91 % 1016,1 hPa 0,0 l/m 0,0 km/h (0 Bft) N 0 0 min 0,000 mm 0 W/m 4,1 C 5,4 C 0,0 km/h (0 Bft) 100 %
04.05.2017 02:00 5,3 C 5,3 C 5,4 C 91 % 1016,0 hPa 0,0 l/m 0,0 km/h (0 Bft) N 0 0 min 0,000 mm 0 W/m 4,0 C 5,3 C 0,0 km/h (0 Bft) 100 %
04.05.2017 02:10 5,4 C 5,3 C 5,4 C 91 % 1016,1 hPa 0,0 l/m 0,0 km/h (0 Bft) N 0 0 min 0,000 mm 0 W/m 4,1 C 5,4 C 0,0 km/h (0 Bft) 100 %
04.05.2017 02:20 5,6 C 5,4 C 5,6 C 91 % 1015,9 hPa 0,0 l/m 0,0 km/h (0 Bft) N 360 0 min 0,000 mm 0 W/m 4,2 C 5,6 C 1,6 km/h (1 Bft) 100 %
04.05.2017 02:30 5,6 C 5,6 C 5,6 C 91 % 1015,9 hPa 0,0 l/m 0,0 km/h (0 Bft) N 360 0 min 0,000 mm 0 W/m 4,2 C 5,6 C 4,8 km/h (1 Bft) 100 %
04.05.2017 02:40 5,6 C 5,6 C 5,6 C 91 % 1015,8 hPa 0,0 l/m 0,0 km/h (0 Bft) N 0 0 min 0,000 mm 0 W/m 4,2 C 5,6 C 0,0 km/h (0 Bft) 100 %
04.05.2017 02:50 5,7 C 5,6 C 5,8 C 91 % 1015,7 hPa 0,0 l/m 0,0 km/h (0 Bft) N 0 0 min 0,000 mm 0 W/m 4,3 C 5,7 C 0,0 km/h (0 Bft) 100 %
04.05.2017 03:00 5,9 C 5,7 C 5,9 C 91 % 1015,7 hPa 0,0 l/m 0,0 km/h (0 Bft) N 0 0 min 0,000 mm 0 W/m 4,5 C 5,9 C 0,0 km/h (0 Bft) 99 %
04.05.2017 03:10 5,9 C 5,9 C 5,9 C 91 % 1015,5 hPa 0,0 l/m 0,0 km/h (0 Bft) N 0 0 min 0,000 mm 0 W/m 4,5 C 5,9 C 0,0 km/h (0 Bft) 100 %
04.05.2017 03:20 6,1 C 5,9 C 6,1 C 91 % 1015,5 hPa 0,0 l/m 0,0 km/h (0 Bft) N 0 0 min 0,000 mm 0 W/m 4,7 C 6,1 C 0,0 km/h (0 Bft) 100 %
04.05.2017 03:30 6,1 C 6,1 C 6,1 C 91 % 1015,3 hPa 0,0 l/m 0,0 km/h (0 Bft) N 0 0 min 0,000 mm 0 W/m 4,7 C 6,1 C 0,0 km/h (0 Bft) 100 %
04.05.2017 03:40 6,3 C 6,1 C 6,3 C 91 % 1015,3 hPa 0,0 l/m 0,0 km/h (0 Bft) N 0 0 min 0,000 mm 0 W/m 4,9 C 6,3 C 0,0 km/h (0 Bft) 100 %
04.05.2017 03:50 6,4 C 6,2 C 6,4 C 91 % 1015,2 hPa 0,0 l/m 0,0 km/h (0 Bft) N 0 0 min 0,000 mm 0 W/m 5,0 C 6,4 C 0,0 km/h (0 Bft) 100 %
04.05.2017 04:00 6,6 C 6,4 C 6,6 C 91 % 1015,2 hPa 0,0 l/m 0,0 km/h (0 Bft) N 0 0 min 0,000 mm 0 W/m 5,2 C 6,6 C 0,0 km/h (0 Bft) 100 %
04.05.2017 04:10 6,7 C 6,6 C 6,7 C 91 % 1015,2 hPa 0,0 l/m 0,0 km/h (0 Bft) N 0 0 min 0,000 mm 0 W/m 5,3 C 6,7 C 0,0 km/h (0 Bft) 100 %
04.05.2017 04:20 6,8 C 6,7 C 6,8 C 91 % 1015,1 hPa 0,0 l/m 0,0 km/h (0 Bft) N 0 0 min 0,000 mm 0 W/m 5,4 C 6,8 C 0,0 km/h (0 Bft) 100 %
04.05.2017 04:30 6,9 C 6,8 C 6,9 C 91 % 1015,2 hPa 0,0 l/m 0,0 km/h (0 Bft) N 0 0 min 0,000 mm 0 W/m 5,5 C 6,9 C 0,0 km/h (0 Bft) 100 %
04.05.2017 04:40 7,1 C 6,9 C 7,1 C 91 % 1015,2 hPa 0,0 l/m 0,0 km/h (0 Bft) N 0 0 min 0,000 mm 0 W/m 5,7 C 7,1 C 0,0 km/h (0 Bft) 100 %
04.05.2017 04:50 7,2 C 7,1 C 7,2 C 91 % 1015,2 hPa 0,0 l/m 0,0 km/h (0 Bft) N 360 0 min 0,000 mm 0 W/m 5,8 C 7,2 C 1,6 km/h (1 Bft) 100 %
04.05.2017 05:00 7,3 C 7,2 C 7,3 C 91 % 1015,2 hPa 0,0 l/m 0,0 km/h (0 Bft) N 0 0 min 0,000 mm 0 W/m 5,9 C 7,3 C 0,0 km/h (0 Bft) 100 %
04.05.2017 05:10 7,3 C 7,3 C 7,3 C 91 % 1015,1 hPa 0,0 l/m 0,0 km/h (0 Bft) N 0 0 min 0,000 mm 0 W/m 5,9 C 7,3 C 0,0 km/h (0 Bft) 99 %
04.05.2017 05:20 7,3 C 7,3 C 7,3 C 91 % 1015,0 hPa 0,0 l/m 0,0 km/h (0 Bft) N 0 0 min 0,000 mm 0 W/m 5,9 C 7,3 C 0,0 km/h (0 Bft) 100 %
04.05.2017 05:30 7,4 C 7,3 C 7,4 C 91 % 1014,9 hPa 0,0 l/m 0,0 km/h (0 Bft) N 0 0 min 0,000 mm 0 W/m 6,0 C 7,4 C 0,0 km/h (0 Bft) 100 %
04.05.2017 05:40 7,4 C 7,3 C 7,4 C 91 % 1015,0 hPa 0,0 l/m 0,0 km/h (0 Bft) N 0 0 min 0,000 mm 0 W/m 6,0 C 7,4 C 0,0 km/h (0 Bft) 100 %
04.05.2017 05:50 7,4 C 7,4 C 7,4 C 91 % 1015,2 hPa 0,0 l/m 0,0 km/h (0 Bft) N 0 0 min 0,000 mm 0 W/m 6,0 C 7,4 C 0,0 km/h (0 Bft) 100 %
04.05.2017 06:00 7,4 C 7,4 C 7,5 C 91 % 1015,1 hPa 0,0 l/m 0,0 km/h (0 Bft) N 0 0 min 0,000 mm 0 W/m 6,0 C 7,4 C 0,0 km/h (0 Bft) 100 %
04.05.2017 06:10 7,4 C 7,4 C 7,4 C 91 % 1015,2 hPa 0,0 l/m 0,0 km/h (0 Bft) N 0 0 min 0,000 mm 5 W/m 6,0 C 7,4 C 0,0 km/h (0 Bft) 100 %
04.05.2017 06:20 7,4 C 7,4 C 7,4 C 91 % 1015,1 hPa 0,0 l/m 0,0 km/h (0 Bft) N 0 0 min 0,000 mm 9 W/m 6,0 C 7,4 C 0,0 km/h (0 Bft) 100 %
04.05.2017 06:30 7,4 C 7,4 C 7,4 C 91 % 1015,2 hPa 0,0 l/m 0,0 km/h (0 Bft) N 0 0 min 0,000 mm 16 W/m 6,0 C 7,4 C 0,0 km/h (0 Bft) 99 %
04.05.2017 06:40 7,4 C 7,4 C 7,4 C 91 % 1015,1 hPa 0,0 l/m 0,0 km/h (0 Bft) N 360 0 min 0,000 mm 19 W/m 6,0 C 7,4 C 1,6 km/h (1 Bft) 100 %
04.05.2017 06:50 7,4 C 7,4 C 7,4 C 91 % 1015,1 hPa 0,0 l/m 0,0 km/h (0 Bft) N 0 0 min 0,000 mm 21 W/m 6,0 C 7,4 C 0,0 km/h (0 Bft) 100 %
04.05.2017 07:00 7,4 C 7,4 C 7,4 C 92 % 1015,0 hPa 0,0 l/m 0,0 km/h (0 Bft) N 360 0 min 0,000 mm 28 W/m 6,2 C 7,4 C 3,2 km/h (1 Bft) 100 %
04.05.2017 07:10 7,5 C 7,4 C 7,5 C 91 % 1015,0 hPa 0,0 l/m 0,0 km/h (0 Bft) N 0 0 min 0,000 mm 33 W/m 6,1 C 7,5 C 0,0 km/h (0 Bft) 100 %
04.05.2017 07:20 7,6 C 7,4 C 7,6 C 91 % 1014,9 hPa 0,0 l/m 0,0 km/h (0 Bft) N 0 0 min 0,000 mm 47 W/m 6,2 C 7,6 C 0,0 km/h (0 Bft) 100 %
04.05.2017 07:30 7,7 C 7,6 C 7,7 C 91 % 1014,9 hPa 0,0 l/m 0,0 km/h (0 Bft) N 360 0 min 0,000 mm 51 W/m 6,3 C 7,7 C 1,6 km/h (1 Bft) 100 %
04.05.2017 07:40 7,7 C 7,7 C 7,7 C 91 % 1014,8 hPa 0,0 l/m 0,0 km/h (0 Bft) N 360 0 min 0,000 mm 53 W/m 6,3 C 7,7 C 1,6 km/h (1 Bft) 100 %
04.05.2017 07:50 7,8 C 7,7 C 7,8 C 91 % 1014,8 hPa 0,0 l/m 0,0 km/h (0 Bft) N 0 0 min 0,000 mm 56 W/m 6,4 C 7,8 C 0,0 km/h (0 Bft) 100 %
04.05.2017 08:00 7,9 C 7,8 C 7,9 C 91 % 1014,9 hPa 0,0 l/m 0,0 km/h (0 Bft) N 0 0 min 0,025 mm 58 W/m 6,5 C 7,9 C 0,0 km/h (0 Bft) 100 %
04.05.2017 08:10 7,9 C 7,9 C 7,9 C 91 % 1014,9 hPa 0,0 l/m 0,0 km/h (0 Bft) N 0 0 min 0,000 mm 74 W/m 6,5 C 7,9 C 0,0 km/h (0 Bft) 100 %
04.05.2017 08:20 8,1 C 7,9 C 8,1 C 91 % 1014,8 hPa 0,0 l/m 0,0 km/h (0 Bft) N 0 0 min 0,000 mm 69 W/m 6,7 C 8,1 C 0,0 km/h (0 Bft) 100 %
04.05.2017 08:30 8,2 C 8,1 C 8,2 C 91 % 1014,8 hPa 0,0 l/m 1,6 km/h (1 Bft) NW 315 0 min 0,000 mm 81 W/m 6,8 C 8,2 C 4,8 km/h (1 Bft) 100 %
04.05.2017 08:40 8,1 C 8,1 C 8,2 C 91 % 1014,8 hPa 0,0 l/m 0,0 km/h (0 Bft) N 0 0 min 0,000 mm 93 W/m 6,7 C 8,1 C 0,0 km/h (0 Bft) 91 %
04.05.2017 08:50 8,3 C 8,1 C 8,3 C 91 % 1014,8 hPa 0,0 l/m 0,0 km/h (0 Bft) W-NW 292 0 min 0,000 mm 104 W/m 6,9 C 8,3 C 3,2 km/h (1 Bft) 99 %
04.05.2017 09:00 8,3 C 8,2 C 8,3 C 91 % 1014,8 hPa 0,0 l/m 0,0 km/h (0 Bft) N 0 0 min 0,025 mm 84 W/m 6,9 C 8,3 C 0,0 km/h (0 Bft) 100 %
04.05.2017 09:10 8,2 C 8,2 C 8,3 C 91 % 1014,7 hPa 0,0 l/m 0,0 km/h (0 Bft) W-NW 292 0 min 0,000 mm 83 W/m 6,8 C 8,2 C 1,6 km/h (1 Bft) 100 %
04.05.2017 09:20 8,2 C 8,2 C 8,3 C 91 % 1014,7 hPa 0,0 l/m 1,6 km/h (1 Bft) W-NW 292 0 min 0,000 mm 113 W/m 6,8 C 8,2 C 6,4 km/h (2 Bft) 100 %
04.05.2017 09:30 8,1 C 8,1 C 8,2 C 91 % 1014,7 hPa 0,0 l/m 1,6 km/h (1 Bft) W-SW 247 0 min 0,000 mm 144 W/m 6,7 C 8,1 C 6,4 km/h (2 Bft) 100 %
04.05.2017 09:40 8,3 C 8,1 C 8,3 C 91 % 1014,7 hPa 0,0 l/m 1,6 km/h (1 Bft) S-SW 202 0 min 0,000 mm 148 W/m 6,9 C 8,3 C 4,8 km/h (1 Bft) 100 %
04.05.2017 09:50 8,6 C 8,3 C 8,6 C 91 % 1014,7 hPa 0,0 l/m 0,0 km/h (0 Bft) S-SW 202 10 min 0,000 mm 153 W/m 7,2 C 8,6 C 4,8 km/h (1 Bft) 100 %
04.05.2017 10:00 8,7 C 8,6 C 8,7 C 91 % 1014,7 hPa 0,0 l/m 0,0 km/h (0 Bft) N 0 10 min 0,051 mm 169 W/m 7,3 C 8,7 C 0,0 km/h (0 Bft) 100 %
04.05.2017 10:10 8,9 C 8,7 C 8,9 C 91 % 1014,7 hPa 0,0 l/m 0,0 km/h (0 Bft) N 0 10 min 0,000 mm 199 W/m 7,5 C 8,9 C 0,0 km/h (0 Bft) 100 %
04.05.2017 10:20 9,0 C 8,9 C 9,0 C 91 % 1014,7 hPa 0,0 l/m 0,0 km/h (0 Bft) N 0 0 min 0,000 mm 149 W/m 7,6 C 9,0 C 0,0 km/h (0 Bft) 100 %
04.05.2017 10:30 8,9 C 8,9 C 9,0 C 91 % 1014,7 hPa 0,0 l/m 0,0 km/h (0 Bft) N 0 0 min 0,000 mm 116 W/m 7,5 C 8,9 C 0,0 km/h (0 Bft) 100 %
04.05.2017 10:40 9,0 C 8,9 C 9,0 C 91 % 1014,7 hPa 0,0 l/m 0,0 km/h (0 Bft) N 0 0 min 0,000 mm 116 W/m 7,6 C 9,0 C 0,0 km/h (0 Bft) 100 %
04.05.2017 10:50 9,2 C 9,0 C 9,2 C 91 % 1014,8 hPa 0,0 l/m 0,0 km/h (0 Bft) N 0 0 min 0,000 mm 127 W/m 7,8 C 9,2 C 0,0 km/h (0 Bft) 100 %
04.05.2017 11:00 9,3 C 9,2 C 9,3 C 91 % 1014,8 hPa 0,0 l/m 0,0 km/h (0 Bft) N 0 0 min 0,051 mm 123 W/m 7,9 C 9,3 C 0,0 km/h (0 Bft) 100 %
04.05.2017 11:10 9,3 C 9,3 C 9,4 C 91 % 1015,0 hPa 0,0 l/m 0,0 km/h (0 Bft) N 0 0 min 0,000 mm 134 W/m 7,9 C 9,3 C 0,0 km/h (0 Bft) 100 %
04.05.2017 11:20 9,3 C 9,3 C 9,3 C 91 % 1015,0 hPa 0,0 l/m 0,0 km/h (0 Bft) S-SW 202 10 min 0,000 mm 204 W/m 7,9 C 9,3 C 3,2 km/h (1 Bft) 100 %
04.05.2017 11:30 9,6 C 9,3 C 9,6 C 91 % 1015,0 hPa 0,0 l/m 1,6 km/h (1 Bft) S-SW 202 10 min 0,000 mm 260 W/m 8,2 C 9,6 C 6,4 km/h (2 Bft) 100 %
04.05.2017 11:40 9,8 C 9,6 C 9,8 C 91 % 1014,9 hPa 0,0 l/m 0,0 km/h (0 Bft) N 0 10 min 0,000 mm 221 W/m 8,4 C 9,8 C 0,0 km/h (0 Bft) 100 %
04.05.2017 11:50 9,9 C 9,8 C 9,9 C 91 % 1014,8 hPa 0,0 l/m 1,6 km/h (1 Bft) S-SW 202 10 min 0,000 mm 176 W/m 8,5 C 9,9 C 4,8 km/h (1 Bft) 100 %
04.05.2017 12:00 9,9 C 9,9 C 9,9 C 91 % 1014,8 hPa 0,0 l/m 0,0 km/h (0 Bft) S-SW 202 10 min 0,076 mm 165 W/m 8,5 C 9,9 C 1,6 km/h (1 Bft) 100 %
04.05.2017 12:10 10,2 C 9,9 C 10,2 C 92 % 1014,7 hPa 0,0 l/m 0,0 km/h (0 Bft) N 0 10 min 0,000 mm 185 W/m 9,0 C 10,2 C 0,0 km/h (0 Bft) 100 %
04.05.2017 12:20 10,2 C 10,1 C 10,2 C 92 % 1014,7 hPa 0,0 l/m 0,0 km/h (0 Bft) N 0 10 min 0,000 mm 155 W/m 9,0 C 10,2 C 0,0 km/h (0 Bft) 100 %
04.05.2017 12:30 10,3 C 10,2 C 10,3 C 92 % 1014,7 hPa 0,0 l/m 0,0 km/h (0 Bft) N 0 10 min 0,000 mm 204 W/m 9,1 C 10,3 C 0,0 km/h (0 Bft) 100 %
04.05.2017 12:40 10,7 C 10,3 C 10,7 C 92 % 1014,7 hPa 0,0 l/m 0,0 km/h (0 Bft) N 0 10 min 0,000 mm 352 W/m 9,5 C 10,7 C 0,0 km/h (0 Bft) 100 %
04.05.2017 12:50 11,3 C 10,7 C 11,3 C 92 % 1014,6 hPa 0,0 l/m 1,6 km/h (1 Bft) S-SW 202 10 min 0,000 mm 489 W/m 10,0 C 11,3 C 6,4 km/h (2 Bft) 100 %
04.05.2017 13:00 11,8 C 11,3 C 11,8 C 91 % 1014,4 hPa 0,0 l/m 0,0 km/h (0 Bft) SW 225 10 min 0,127 mm 487 W/m 10,4 C 11,8 C 6,4 km/h (2 Bft) 100 %
04.05.2017 13:10 12,2 C 11,8 C 12,2 C 91 % 1014,3 hPa 0,0 l/m 1,6 km/h (1 Bft) W-SW 247 10 min 0,000 mm 367 W/m 10,8 C 12,2 C 9,7 km/h (2 Bft) 100 %
04.05.2017 13:20 12,6 C 12,2 C 12,6 C 89 % 1014,4 hPa 0,0 l/m 3,2 km/h (1 Bft) NW 315 10 min 0,000 mm 362 W/m 10,8 C 12,6 C 8,0 km/h (2 Bft) 100 %
04.05.2017 13:30 12,9 C 12,6 C 12,9 C 87 % 1014,2 hPa 0,0 l/m 0,0 km/h (0 Bft) NW 315 10 min 0,000 mm 364 W/m 10,8 C 12,9 C 1,6 km/h (1 Bft) 100 %
04.05.2017 13:40 13,2 C 12,9 C 13,2 C 84 % 1014,1 hPa 0,0 l/m 0,0 km/h (0 Bft) NW 315 10 min 0,000 mm 339 W/m 10,6 C 13,2 C 9,7 km/h (2 Bft) 100 %
04.05.2017 13:50 13,3 C 13,2 C 13,3 C 84 % 1014,0 hPa 0,0 l/m 3,2 km/h (1 Bft) NW 315 10 min 0,000 mm 264 W/m 10,7 C 13,3 C 8,0 km/h (2 Bft) 100 %
04.05.2017 14:00 13,3 C 13,3 C 13,3 C 83 % 1013,9 hPa 0,0 l/m 1,6 km/h (1 Bft) NW 315 10 min 0,152 mm 255 W/m 10,5 C 13,3 C 8,0 km/h (2 Bft) 100 %
04.05.2017 14:10 13,5 C 13,3 C 13,5 C 82 % 1013,8 hPa 0,0 l/m 0,0 km/h (0 Bft) W-NW 292 10 min 0,000 mm 617 W/m 10,5 C 13,5 C 6,4 km/h (2 Bft) 98 %
04.05.2017 14:20 13,8 C 13,5 C 13,8 C 81 % 1013,6 hPa 0,0 l/m 0,0 km/h (0 Bft) NW 315 10 min 0,000 mm 387 W/m 10,6 C 13,8 C 1,6 km/h (1 Bft) 98 %
04.05.2017 14:30 14,2 C 13,8 C 14,2 C 79 % 1013,5 hPa 0,0 l/m 0,0 km/h (0 Bft) NW 315 10 min 0,000 mm 666 W/m 10,6 C 14,2 C 1,6 km/h (1 Bft) 97 %
04.05.2017 14:40 14,1 C 14,1 C 14,3 C 79 % 1013,4 hPa 0,0 l/m 0,0 km/h (0 Bft) W-NW 292 10 min 0,000 mm 376 W/m 10,5 C 14,1 C 1,6 km/h (1 Bft) 98 %
04.05.2017 14:50 14,4 C 14,1 C 14,4 C 83 % 1013,3 hPa 0,0 l/m 0,0 km/h (0 Bft) W-SW 247 10 min 0,000 mm 468 W/m 11,5 C 14,4 C 6,4 km/h (2 Bft) 98 %
04.05.2017 15:00 14,9 C 14,4 C 15,1 C 77 % 1013,1 hPa 0,0 l/m 0,0 km/h (0 Bft) SO 135 10 min 0,203 mm 666 W/m 10,9 C 14,9 C 6,4 km/h (2 Bft) 97 %
04.05.2017 15:10 14,9 C 14,9 C 14,9 C 75 % 1013,2 hPa 0,0 l/m 0,0 km/h (0 Bft) O-SO 112 10 min 0,000 mm 232 W/m 10,5 C 14,9 C 1,6 km/h (1 Bft) 98 %
04.05.2017 15:20 14,7 C 14,7 C 14,9 C 75 % 1013,0 hPa 0,0 l/m 0,0 km/h (0 Bft) N 0 10 min 0,000 mm 221 W/m 10,3 C 14,7 C 0,0 km/h (0 Bft) 97 %
04.05.2017 15:30 14,5 C 14,5 C 14,7 C 76 % 1012,9 hPa 0,0 l/m 0,0 km/h (0 Bft) O-SO 112 10 min 0,000 mm 225 W/m 10,3 C 14,5 C 1,6 km/h (1 Bft) 98 %
04.05.2017 15:40 14,5 C 14,4 C 14,5 C 79 % 1013,0 hPa 0,0 l/m 0,0 km/h (0 Bft) O-SO 112 10 min 0,000 mm 236 W/m 10,9 C 14,5 C 1,6 km/h (1 Bft) 96 %
04.05.2017 15:50 14,3 C 14,3 C 14,5 C 78 % 1012,9 hPa 0,0 l/m 1,6 km/h (1 Bft) S-SO 157 10 min 0,000 mm 193 W/m 10,5 C 14,3 C 9,7 km/h (2 Bft) 98 %
04.05.2017 16:00 13,9 C 13,9 C 14,3 C 81 % 1012,9 hPa 0,0 l/m 4,8 km/h (1 Bft) S 180 10 min 0,102 mm 153 W/m 10,7 C 13,9 C 11,3 km/h (2 Bft) 97 %
04.05.2017 16:10 13,6 C 13,6 C 13,9 C 81 % 1012,9 hPa 0,0 l/m 3,2 km/h (1 Bft) S 180 0 min 0,000 mm 148 W/m 10,4 C 13,6 C 14,5 km/h (3 Bft) 97 %
04.05.2017 16:20 13,3 C 13,3 C 13,6 C 81 % 1012,9 hPa 0,0 l/m 3,2 km/h (1 Bft) S-SO 157 0 min 0,000 mm 120 W/m 10,1 C 13,3 C 11,3 km/h (2 Bft) 98 %
04.05.2017 16:40 13,2 C 13,2 C 13,6 C 82 % 1012,9 hPa 0,0 l/m 2,0 km/h (1 Bft) W-SW 248 0 min 0,001 mm 120 W/m 10,2 C 13,2 C 8,0 km/h (2 Bft) 100 %
04.05.2017 16:50 13,2 C 13,2 C 13,2 C 82 % 1013,0 hPa 0,0 l/m 5,7 km/h (1 Bft) W 263 0 min 0,000 mm 146 W/m 10,2 C 13,2 C 16,1 km/h (3 Bft) 100 %
04.05.2017 17:00 13,1 C 13,1 C 13,2 C 80 % 1013,0 hPa 0,0 l/m 8,4 km/h (2 Bft) W 263 10 min 0,076 mm 257 W/m 9,7 C 11,9 C 17,7 km/h (3 Bft) 100 %
04.05.2017 17:10 13,1 C 13,1 C 13,1 C 78 % 1013,1 hPa 0,0 l/m 9,6 km/h (2 Bft) W-SW 255 10 min 0,000 mm 227 W/m 9,4 C 11,2 C 19,3 km/h (3 Bft) 100 %
04.05.2017 17:20 13,7 C 13,1 C 13,7 C 77 % 1013,2 hPa 0,0 l/m 5,9 km/h (2 Bft) W-NW 289 10 min 0,000 mm 262 W/m 9,7 C 13,7 C 16,1 km/h (3 Bft) 100 %
04.05.2017 17:30 14,2 C 13,7 C 14,2 C 77 % 1013,4 hPa 0,0 l/m 3,6 km/h (1 Bft) W-SW 248 10 min 0,000 mm 262 W/m 10,2 C 14,2 C 11,3 km/h (2 Bft) 100 %
04.05.2017 17:40 14,8 C 14,2 C 14,8 C 77 % 1013,6 hPa 0,0 l/m 8,5 km/h (2 Bft) NW 309 0 min 0,000 mm 72 W/m 10,8 C 13,6 C 19,3 km/h (3 Bft) 100 %
04.05.2017 17:50 14,2 C 14,2 C 14,8 C 73 % 1014,0 hPa 0,0 l/m 2,5 km/h (1 Bft) N 360 0 min 0,000 mm 23 W/m 9,4 C 14,2 C 16,1 km/h (3 Bft) 100 %
04.05.2017 18:00 12,8 C 12,8 C 14,2 C 76 % 1014,2 hPa 0,0 l/m 2,8 km/h (1 Bft) N 360 0 min 0,102 mm 14 W/m 8,7 C 12,8 C 14,5 km/h (3 Bft) 99 %
04.05.2017 18:10 11,6 C 11,6 C 12,8 C 81 % 1014,4 hPa 0,0 l/m 0,1 km/h (0 Bft) N 355 0 min 0,000 mm 14 W/m 8,5 C 11,6 C 3,2 km/h (1 Bft) 100 %
04.05.2017 18:20 10,8 C 10,8 C 11,6 C 85 % 1014,4 hPa 0,0 l/m 0,0 km/h (0 Bft) N 5 0 min 0,000 mm 25 W/m 8,4 C 10,8 C 1,6 km/h (1 Bft) 99 %
04.05.2017 18:30 10,3 C 10,3 C 10,8 C 88 % 1014,2 hPa 0,0 l/m 0,0 km/h (0 Bft) N-NO 12 0 min 0,000 mm 26 W/m 8,4 C 10,3 C 1,6 km/h (1 Bft) 100 %
04.05.2017 18:40 10,1 C 10,1 C 10,3 C 89 % 1014,2 hPa 0,0 l/m 0,0 km/h (0 Bft) N-NO 13 0 min 0,000 mm 23 W/m 8,4 C 10,1 C 0,0 km/h (0 Bft) 91 %
04.05.2017 18:50 10,0 C 10,0 C 10,1 C 90 % 1014,1 hPa 0,0 l/m 0,0 km/h (0 Bft) N 9 0 min 0,000 mm 25 W/m 8,4 C 10,0 C 1,6 km/h (1 Bft) 100 %
04.05.2017 19:00 10,0 C 10,0 C 10,0 C 90 % 1014,1 hPa 0,0 l/m 0,9 km/h (0 Bft) N-NW 327 0 min 0,025 mm 25 W/m 8,4 C 10,0 C 8,0 km/h (2 Bft) 100 %
04.05.2017 19:10 9,9 C 9,9 C 10,0 C 90 % 1014,2 hPa 0,0 l/m 0,2 km/h (0 Bft) N-NW 338 0 min 0,000 mm 23 W/m 8,3 C 9,9 C 4,8 km/h (1 Bft) 99 %
04.05.2017 19:20 9,8 C 9,8 C 9,9 C 90 % 1014,3 hPa 0,0 l/m 0,2 km/h (0 Bft) N 355 0 min 0,000 mm 23 W/m 8,2 C 9,8 C 6,4 km/h (2 Bft) 100 %
04.05.2017 19:30 9,7 C 9,7 C 9,8 C 90 % 1014,3 hPa 0,0 l/m 0,0 km/h (0 Bft) N 355 0 min 0,000 mm 26 W/m 8,1 C 9,7 C 0,0 km/h (0 Bft) 100 %
04.05.2017 19:40 9,7 C 9,7 C 9,7 C 91 % 1014,4 hPa 0,0 l/m 0,0 km/h (0 Bft) N 355 0 min 0,000 mm 28 W/m 8,3 C 9,7 C 0,0 km/h (0 Bft) 100 %
04.05.2017 19:50 9,6 C 9,6 C 9,7 C 91 % 1014,3 hPa 0,0 l/m 0,0 km/h (0 Bft) N 355 0 min 0,000 mm 26 W/m 8,2 C 9,6 C 0,0 km/h (0 Bft) 100 %
04.05.2017 20:00 9,5 C 9,5 C 9,6 C 91 % 1014,3 hPa 0,0 l/m 0,1 km/h (0 Bft) N 9 0 min 0,025 mm 19 W/m 8,1 C 9,5 C 6,4 km/h (2 Bft) 100 %
04.05.2017 20:10 9,4 C 9,4 C 9,5 C 90 % 1014,3 hPa 0,0 l/m 0,0 km/h (0 Bft) N 10 0 min 0,000 mm 12 W/m 7,8 C 9,4 C 1,6 km/h (1 Bft) 91 %
04.05.2017 20:20 9,2 C 9,2 C 9,4 C 90 % 1014,5 hPa 0,0 l/m 0,0 km/h (0 Bft) N 360 0 min 0,000 mm 9 W/m 7,6 C 9,2 C 1,6 km/h (1 Bft) 100 %
04.05.2017 20:30 9,1 C 9,1 C 9,2 C 90 % 1014,6 hPa 0,0 l/m 0,0 km/h (0 Bft) N 360 0 min 0,000 mm 5 W/m 7,5 C 9,1 C 0,0 km/h (0 Bft) 100 %
04.05.2017 20:40 9,0 C 9,0 C 9,1 C 90 % 1014,8 hPa 0,0 l/m 0,0 km/h (0 Bft) N 360 0 min 0,000 mm 0 W/m 7,4 C 9,0 C 0,0 km/h (0 Bft) 99 %
04.05.2017 20:50 8,8 C 8,8 C 9,0 C 91 % 1014,9 hPa 0,0 l/m 0,0 km/h (0 Bft) N 360 0 min 0,000 mm 0 W/m 7,4 C 8,8 C 0,0 km/h (0 Bft) 99 %
04.05.2017 21:00 8,6 C 8,6 C 8,8 C 91 % 1015,1 hPa 0,0 l/m 0,0 km/h (0 Bft) N 360 0 min 0,000 mm 0 W/m 7,2 C 8,6 C 0,0 km/h (0 Bft) 100 %
04.05.2017 21:10 8,4 C 8,4 C 8,6 C 91 % 1015,1 hPa 0,0 l/m 0,0 km/h (0 Bft) N 0 0 min 0,000 mm 0 W/m 7,0 C 8,4 C 0,0 km/h (0 Bft) 98 %
04.05.2017 21:20 8,2 C 8,2 C 8,4 C 91 % 1015,2 hPa 0,0 l/m 0,0 km/h (0 Bft) N 0 0 min 0,000 mm 0 W/m 6,8 C 8,2 C 0,0 km/h (0 Bft) 97 %
04.05.2017 21:30 7,9 C 7,9 C 8,2 C 91 % 1015,3 hPa 0,0 l/m 0,0 km/h (0 Bft) N 0 0 min 0,000 mm 0 W/m 6,5 C 7,9 C 0,0 km/h (0 Bft) 97 %
04.05.2017 21:40 7,7 C 7,7 C 7,9 C 91 % 1015,5 hPa 0,0 l/m 0,0 km/h (0 Bft) N 0 0 min 0,000 mm 0 W/m 6,3 C 7,7 C 0,0 km/h (0 Bft) 98 %
04.05.2017 21:50 7,4 C 7,4 C 7,7 C 91 % 1015,5 hPa 0,0 l/m 0,0 km/h (0 Bft) N 0 0 min 0,000 mm 0 W/m 6,0 C 7,4 C 0,0 km/h (0 Bft) 97 %
04.05.2017 22:00 7,2 C 7,2 C 7,4 C 91 % 1015,4 hPa 0,0 l/m 0,0 km/h (0 Bft) N 0 0 min 0,000 mm 0 W/m 5,8 C 7,2 C 0,0 km/h (0 Bft) 98 %
04.05.2017 22:10 7,2 C 7,2 C 7,2 C 91 % 1015,6 hPa 0,0 l/m 0,0 km/h (0 Bft) N 0 0 min 0,000 mm 0 W/m 5,8 C 7,2 C 0,0 km/h (0 Bft) 97 %
04.05.2017 22:20 7,1 C 7,0 C 7,2 C 91 % 1015,7 hPa 0,0 l/m 0,0 km/h (0 Bft) N 0 0 min 0,000 mm 0 W/m 5,7 C 7,1 C 0,0 km/h (0 Bft) 98 %
04.05.2017 22:30 7,1 C 7,0 C 7,1 C 91 % 1015,8 hPa 0,0 l/m 0,0 km/h (0 Bft) N 0 0 min 0,000 mm 0 W/m 5,7 C 7,1 C 0,0 km/h (0 Bft) 98 %
04.05.2017 22:40 7,0 C 7,0 C 7,1 C 91 % 1015,8 hPa 0,0 l/m 0,0 km/h (0 Bft) N 360 0 min 0,000 mm 0 W/m 5,6 C 7,0 C 1,6 km/h (1 Bft) 100 %
04.05.2017 22:50 6,9 C 6,9 C 7,0 C 91 % 1016,2 hPa 0,0 l/m 0,0 km/h (0 Bft) N 0 0 min 0,000 mm 0 W/m 5,5 C 6,9 C 0,0 km/h (0 Bft) 100 %
04.05.2017 23:00 7,0 C 6,9 C 7,0 C 91 % 1016,3 hPa 0,0 l/m 0,0 km/h (0 Bft) N 0 0 min 0,000 mm 0 W/m 5,6 C 7,0 C 0,0 km/h (0 Bft) 100 %
04.05.2017 23:10 7,1 C 7,0 C 7,1 C 91 % 1016,4 hPa 0,0 l/m 0,0 km/h (0 Bft) N 0 0 min 0,000 mm 0 W/m 5,7 C 7,1 C 0,0 km/h (0 Bft) 100 %
04.05.2017 23:20 7,2 C 7,1 C 7,2 C 91 % 1016,3 hPa 0,0 l/m 0,0 km/h (0 Bft) N 0 0 min 0,000 mm 0 W/m 5,8 C 7,2 C 0,0 km/h (0 Bft) 100 %
04.05.2017 23:30 7,2 C 7,2 C 7,2 C 91 % 1016,3 hPa 0,0 l/m 0,0 km/h (0 Bft) N 0 0 min 0,000 mm 0 W/m 5,8 C 7,2 C 0,0 km/h (0 Bft) 100 %
04.05.2017 23:40 7,2 C 7,2 C 7,2 C 91 % 1016,4 hPa 0,0 l/m 0,0 km/h (0 Bft) N 0 0 min 0,000 mm 0 W/m 5,8 C 7,2 C 0,0 km/h (0 Bft) 99 %
04.05.2017 23:50 7,1 C 7,1 C 7,2 C 92 % 1016,5 hPa 0,0 l/m 0,0 km/h (0 Bft) N 0 0 min 0,000 mm 0 W/m 5,9 C 7,1 C 0,0 km/h (0 Bft) 88 %
_ Min-Zeit 02:00 02:00 01:50 17:50 15:30 - 00:00 - - - - - 02:00 02:00 00:00 23:50
Minimum _ 5,3 C 5,3 C 5,4 C 73 % 1012,9 hPa - 0,0 km/h (0 Bft) - - - - - 4,0 C 5,3 C 0,0 km/h (0 Bft) 88 %
_ Max-Zeit 15:00 15:10 15:00 07:00 23:50 00:00 17:10 - - 09:50 15:00 14:30 14:50 15:00 17:10 00:00
Maximum _ 15,1 C 14,9 C 15,1 C 92 % 1016,5 hPa 0,0 l/m 9,6 km/h
W-SW (2 Bft)
- - 10 min 0,203 mm 666 W/m 11,5 C 14,9 C 19,3 km/h
W-SW (3 Bft)
100 %
Durchschnitt _ 9,1 C 9,0 C 9,2 C 89 % 1014,8 hPa #0,0 l/m 0,6 km/h (0 Bft) W-SW - #6:00 h #1,041 mm 162 W/m 7,3 C 9,1 C 2,6 km/h (1 Bft) 99 %
PRIVATE WETTERSTATION BILLIGHEIM-ALLFELD - www.neckar-odenwald-wetter.de - Holger Sonntag